createdAt,value
2018-05-12T00:01:01.888Z,97.56
2018-05-12T00:02:10.724Z,97.08
2018-05-12T00:03:19.562Z,97.08
2018-05-12T00:04:28.397Z,97.56
2018-05-12T00:05:37.234Z,97.75
2018-05-12T00:06:46.405Z,97.56
2018-05-12T00:07:55.238Z,97.75
2018-05-12T00:09:04.080Z,97.85
2018-05-12T00:10:12.908Z,97.56
2018-05-12T00:11:21.847Z,98.71
2018-05-12T00:12:30.687Z,98.14
2018-05-12T00:13:39.879Z,97.37
2018-05-12T00:14:48.712Z,96.89
2018-05-12T00:15:58.215Z,96.51
2018-05-12T00:17:07.811Z,96.99
2018-05-12T00:18:16.924Z,97.56
2018-05-12T00:19:25.757Z,96.99
2018-05-12T00:20:34.876Z,97.18
2018-05-12T00:21:43.702Z,96.99
2018-05-12T00:22:52.915Z,96.7
2018-05-12T00:24:01.751Z,97.37
2018-05-12T00:25:10.587Z,97.18
2018-05-12T00:26:19.424Z,96.89
2018-05-12T00:27:28.260Z,97.37
2018-05-12T00:28:37.373Z,96.89
2018-05-12T00:29:46.209Z,97.28
2018-05-12T00:30:55.046Z,97.56
2018-05-12T00:32:03.880Z,97.37
2018-05-12T00:33:12.715Z,97.28
2018-05-12T00:34:21.705Z,97.28
2018-05-12T00:35:30.541Z,98.24
2018-05-12T00:36:39.373Z,97.56
2018-05-12T00:37:48.207Z,98.33
2018-05-12T00:38:57.041Z,98.14
2018-05-12T00:40:06.227Z,98.33
2018-05-12T00:41:15.061Z,98.52
2018-05-12T00:42:23.900Z,98.43
2018-05-12T00:43:33.009Z,97.47
2018-05-12T00:44:42.117Z,97.47
2018-05-12T00:45:51.376Z,97.66
2018-05-12T00:47:00.214Z,97.47
2018-05-12T00:48:09.047Z,97.56
2018-05-12T00:49:17.884Z,97.66
2018-05-12T00:50:26.719Z,98.04
2018-05-12T00:51:35.831Z,98.14
2018-05-12T00:52:44.667Z,97.66
2018-05-12T00:53:53.503Z,97.66
2018-05-12T00:55:02.611Z,97.95
2018-05-12T00:56:11.723Z,97.75
2018-05-12T00:57:20.710Z,97.47
2018-05-12T00:58:29.546Z,98.33
2018-05-12T00:59:38.938Z,98.43
2018-05-12T01:00:47.773Z,98.14
2018-05-12T01:01:56.609Z,98.04
2018-05-12T01:03:05.596Z,98.43
2018-05-12T01:04:14.708Z,98.04
2018-05-12T01:05:23.543Z,97.37
2018-05-12T01:06:32.379Z,97.66
2018-05-12T01:07:41.215Z,97.47
2018-05-12T01:08:50.400Z,97.75
2018-05-12T01:09:59.236Z,97.47
2018-05-12T01:11:08.352Z,97.56
2018-05-12T01:12:17.186Z,97.37
2018-05-12T01:13:26.025Z,97.66
2018-05-12T01:14:35.311Z,97.47
2018-05-12T01:15:44.429Z,98.33
2018-05-12T01:16:53.539Z,97.99
2018-05-12T01:18:02.647Z,97.47
2018-05-12T01:19:11.764Z,97.66
2018-05-12T01:20:20.699Z,97.28
2018-05-12T01:21:29.533Z,98.33
2018-05-12T01:22:38.369Z,97.66
2018-05-12T01:23:47.482Z,98.24
2018-05-12T01:24:56.316Z,97.47
2018-05-12T01:26:05.214Z,97.75
2018-05-12T01:27:14.318Z,97.66
2018-05-12T01:28:23.431Z,98.24
2018-05-12T01:29:32.270Z,97.56
2018-05-12T01:30:41.935Z,97.99
2018-05-12T01:31:51.047Z,97.66
2018-05-12T01:32:59.886Z,98.24
2018-05-12T01:34:09.003Z,97.66
2018-05-12T01:35:17.840Z,97.28
2018-05-12T01:36:26.675Z,97.95
2018-05-12T01:37:35.796Z,97.56
2018-05-12T01:38:44.634Z,97.61
2018-05-12T01:39:54.018Z,98.52
2018-05-12T01:41:03.128Z,98.24
2018-05-12T01:42:11.963Z,98.14
2018-05-12T01:43:21.074Z,98.81
2018-05-12T01:44:30.189Z,98.24
2018-05-12T01:45:39.020Z,98.18
2018-05-12T01:46:47.854Z,98.33
2018-05-12T01:47:56.696Z,97.85
2018-05-12T01:49:05.690Z,97.28
2018-05-12T01:50:14.518Z,97.75
2018-05-12T01:51:23.352Z,98.09
2018-05-12T01:52:32.188Z,98.24
2018-05-12T01:53:41.023Z,98.14
2018-05-12T01:54:49.857Z,98.66
2018-05-12T01:55:58.974Z,98.47
2018-05-12T01:57:08.085Z,97.8
2018-05-12T01:58:17.195Z,98.33
2018-05-12T01:59:26.308Z,97.37
2018-05-12T02:00:35.676Z,98.04
2018-05-12T02:01:44.788Z,98.14
2018-05-12T02:02:53.624Z,98.24
2018-05-12T02:04:02.458Z,98.66
2018-05-12T02:05:11.570Z,98.09
2018-05-12T02:06:20.605Z,98.18
2018-05-12T02:07:29.711Z,98.57
2018-05-12T02:08:38.548Z,97.33
2018-05-12T02:09:47.382Z,97.13
2018-05-12T02:10:56.219Z,97.28
2018-05-12T02:12:05.158Z,98.14
2018-05-12T02:13:13.991Z,97.75
2018-05-12T02:14:23.101Z,97.71
2018-05-12T02:15:31.941Z,98.38
2018-05-12T02:16:41.050Z,97.61
2018-05-12T02:17:49.890Z,97.8
2018-05-12T02:18:59.001Z,97.04
2018-05-12T02:20:07.839Z,97.13
2018-05-12T02:21:16.675Z,97.52
2018-05-12T02:22:25.511Z,97.66
2018-05-12T02:23:34.397Z,97.52
2018-05-12T02:24:43.231Z,97.33
2018-05-12T02:25:52.067Z,97.33
2018-05-12T02:27:00.904Z,97.42
2018-05-12T02:28:09.742Z,97.71
2018-05-12T02:29:18.577Z,97.61
2018-05-12T02:30:27.732Z,96.94
2018-05-12T02:31:37.351Z,97.47
2018-05-12T02:32:46.196Z,96.37
2018-05-12T02:33:55.307Z,96.61
2018-05-12T02:35:04.424Z,97.13
2018-05-12T02:36:13.554Z,96.47
2018-05-12T02:37:22.672Z,97.33
2018-05-12T02:38:32.067Z,96.47
2018-05-12T02:39:41.457Z,96.42
2018-05-12T02:40:50.622Z,97.18
2018-05-12T02:41:59.737Z,96.42
2018-05-12T02:43:09.125Z,97.18
2018-05-12T02:44:18.256Z,97.8
2018-05-12T02:45:27.095Z,97.23
2018-05-12T02:46:35.985Z,96.51
2018-05-12T02:47:44.838Z,97.18
2018-05-12T02:48:53.667Z,97.47
2018-05-12T02:50:02.807Z,97.37
2018-05-12T02:51:12.192Z,96.99
2018-05-12T02:52:21.741Z,97.13
2018-05-12T02:53:30.861Z,97.37
2018-05-12T02:54:39.975Z,97.37
2018-05-12T02:55:49.096Z,96.13
2018-05-12T02:56:57.925Z,96.42
2018-05-12T02:58:07.386Z,96.32
2018-05-12T02:59:16.506Z,96.22
2018-05-12T03:00:25.622Z,96.42
2018-05-12T03:01:34.462Z,97.28
2018-05-12T03:02:43.575Z,97.47
2018-05-12T03:03:52.516Z,97.28
2018-05-12T03:05:01.628Z,97.18
2018-05-12T03:06:10.744Z,97.33
2018-05-12T03:07:19.857Z,97.75
2018-05-12T03:08:29.819Z,96.99
2018-05-12T03:09:39.307Z,97.47
2018-05-12T03:10:48.420Z,96.47
2018-05-12T03:11:57.819Z,97.28
2018-05-12T03:13:06.656Z,97.08
2018-05-12T03:14:15.493Z,97.47
2018-05-12T03:15:24.715Z,97.28
2018-05-12T03:16:33.551Z,97.66
2018-05-12T03:17:42.389Z,97.23
2018-05-12T03:18:51.504Z,97.37
2018-05-12T03:20:00.345Z,97.52
2018-05-12T03:21:09.508Z,97.37
2018-05-12T03:22:18.617Z,97.56
2018-05-12T03:23:27.739Z,97.61
2018-05-12T03:24:36.570Z,97.33
2018-05-12T03:25:45.409Z,97.33
2018-05-12T03:26:54.518Z,96.94
2018-05-12T03:28:03.355Z,97.13
2018-05-12T03:29:12.467Z,97.04
2018-05-12T03:30:21.309Z,96.51
2018-05-12T03:31:30.424Z,97.18
2018-05-12T03:32:39.409Z,97.28
2018-05-12T03:33:48.243Z,97.18
2018-05-12T03:34:57.078Z,97.56
2018-05-12T03:36:06.190Z,97.42
2018-05-12T03:37:15.029Z,97.61
2018-05-12T03:38:23.863Z,97.47
2018-05-12T03:39:32.974Z,97.71
2018-05-12T03:40:41.808Z,97.95
2018-05-12T03:41:50.643Z,98.43
2018-05-12T03:42:59.478Z,98.04
2018-05-12T03:44:08.945Z,97.52
2018-05-12T03:45:17.779Z,97.33
2018-05-12T03:46:26.616Z,97.85
2018-05-12T03:47:36.010Z,97.56
2018-05-12T03:48:45.394Z,98.43
2018-05-12T03:49:54.501Z,97.56
2018-05-12T03:51:03.339Z,97.47
2018-05-12T03:52:12.456Z,97.85
2018-05-12T03:53:21.564Z,97.56
2018-05-12T03:54:30.398Z,97.47
2018-05-12T03:55:39.285Z,97.37
2018-05-12T03:56:48.121Z,97.61
2018-05-12T03:57:57.227Z,97.28
2018-05-12T03:59:06.340Z,97.95
2018-05-12T04:00:15.724Z,98.33
2018-05-12T04:01:24.909Z,98.43
2018-05-12T04:02:33.745Z,98.24
2018-05-12T04:03:42.855Z,98.24
2018-05-12T04:04:51.691Z,98.43
2018-05-12T04:06:01.075Z,98.14
2018-05-12T04:07:10.394Z,98.43
2018-05-12T04:08:19.502Z,97.66
2018-05-12T04:09:28.337Z,97.47
2018-05-12T04:10:37.175Z,97.56
2018-05-12T04:11:46.012Z,97.13
2018-05-12T04:12:55.219Z,98.14
2018-05-12T04:14:04.055Z,97.56
2018-05-12T04:15:12.892Z,98.24
2018-05-12T04:16:21.729Z,97.37
2018-05-12T04:17:31.115Z,97.66
2018-05-12T04:18:40.639Z,98.14
2018-05-12T04:19:49.476Z,97.37
2018-05-12T04:20:58.638Z,97.66
2018-05-12T04:22:07.759Z,98.33
2018-05-12T04:23:16.593Z,98.04
2018-05-12T04:24:25.829Z,98.04
2018-05-12T04:25:34.671Z,97.37
2018-05-12T04:26:43.507Z,97.56
2018-05-12T04:27:52.340Z,97.37
2018-05-12T04:29:01.175Z,97.75
2018-05-12T04:30:10.007Z,97.66
2018-05-12T04:31:19.116Z,98.24
2018-05-12T04:32:27.951Z,97.66
2018-05-12T04:33:36.792Z,98.04
2018-05-12T04:34:45.625Z,97.47
2018-05-12T04:35:54.814Z,97.75
2018-05-12T04:37:03.650Z,97.66
2018-05-12T04:38:12.486Z,98.04
2018-05-12T04:39:21.597Z,98.24
2018-05-12T04:40:30.710Z,97.47
2018-05-12T04:41:39.800Z,97.47
2018-05-12T04:42:49.186Z,97.85
2018-05-12T04:43:58.297Z,97.56
2018-05-12T04:45:07.134Z,97.66
2018-05-12T04:46:16.243Z,97.47
2018-05-12T04:47:25.177Z,97.37
2018-05-12T04:48:34.012Z,97.56
2018-05-12T04:49:43.123Z,97.85
2018-05-12T04:50:51.960Z,97.47
2018-05-12T04:52:00.797Z,97.85
2018-05-12T04:53:09.633Z,97.47
2018-05-12T04:54:18.557Z,97.47
2018-05-12T04:55:27.301Z,97.47
2018-05-12T04:56:36.134Z,97.47
2018-05-12T04:57:45.254Z,97.47
2018-05-12T04:58:54.139Z,97.18
2018-05-12T05:00:03.529Z,97.08
2018-05-12T05:01:12.365Z,97.47
2018-05-12T05:02:21.202Z,97.75
2018-05-12T05:03:30.039Z,97.66
2018-05-12T05:04:38.880Z,97.56
2018-05-12T05:05:47.989Z,97.18
2018-05-12T05:06:56.832Z,97.75
2018-05-12T05:08:05.663Z,97.56
2018-05-12T05:09:14.859Z,97.66
2018-05-12T05:10:23.696Z,97.47
2018-05-12T05:11:32.804Z,97.66
2018-05-12T05:12:41.640Z,97.66
2018-05-12T05:13:50.748Z,97.56
2018-05-12T05:14:59.580Z,97.47
2018-05-12T05:16:08.567Z,97.37
2018-05-12T05:17:17.679Z,97.18
2018-05-12T05:18:26.516Z,97.28
2018-05-12T05:19:35.910Z,96.99
2018-05-12T05:20:44.745Z,97.08
2018-05-12T05:21:54.207Z,97.18
2018-05-12T05:23:03.045Z,97.37
2018-05-12T05:24:12.158Z,96.99
2018-05-12T05:25:20.994Z,97.23
2018-05-12T05:26:30.106Z,97.13
2018-05-12T05:27:39.191Z,97.33
2018-05-12T05:28:48.027Z,97.28
2018-05-12T05:29:56.861Z,97.18
2018-05-12T05:31:05.694Z,97.33
2018-05-12T05:32:14.534Z,97.42
2018-05-12T05:33:23.465Z,97.28
2018-05-12T05:34:32.578Z,97.37
2018-05-12T05:35:41.415Z,97.08
2018-05-12T05:36:50.251Z,97.85
2018-05-12T05:37:59.085Z,97.23
2018-05-12T05:39:08.172Z,97.52
2018-05-12T05:40:17.007Z,97.8
2018-05-12T05:41:25.845Z,97.13
2018-05-12T05:42:34.680Z,97.71
2018-05-12T05:43:43.517Z,97.23
2018-05-12T05:44:52.455Z,97.42
2018-05-12T05:46:01.291Z,97.23
2018-05-12T05:47:10.125Z,97.04
2018-05-12T05:48:18.961Z,97.52
2018-05-12T05:49:28.079Z,97.42
2018-05-12T05:50:37.292Z,97.33
2018-05-12T05:51:46.129Z,96.66
2018-05-12T05:52:54.964Z,97.33
2018-05-12T05:54:03.800Z,96.66
2018-05-12T05:55:12.691Z,96.66
2018-05-12T05:56:21.674Z,96.47
2018-05-12T05:57:30.510Z,97.04
2018-05-12T05:58:39.383Z,96.66
2018-05-12T05:59:48.183Z,96.66
2018-05-12T06:00:57.017Z,96.84
2018-05-12T06:02:06.415Z,96.94
2018-05-12T06:03:15.251Z,96.56
2018-05-12T06:04:24.092Z,96.47
2018-05-12T06:05:33.208Z,96.47
2018-05-12T06:06:42.050Z,96.47
2018-05-12T06:07:51.232Z,96.56
2018-05-12T06:09:00.070Z,95.98
2018-05-12T06:10:08.907Z,95.98
2018-05-12T06:11:17.741Z,95.84
2018-05-12T06:12:26.576Z,95.65
2018-05-12T06:13:35.791Z,95.75
2018-05-12T06:14:44.901Z,95.56
2018-05-12T06:15:53.737Z,95.17
2018-05-12T06:17:02.578Z,95.84
2018-05-12T06:18:11.533Z,95.65
2018-05-12T06:19:21.346Z,95.46
2018-05-12T06:20:30.463Z,95.56
2018-05-12T06:21:39.572Z,96.03
2018-05-12T06:22:48.411Z,95.84
2018-05-12T06:23:57.523Z,95.84
2018-05-12T06:25:06.507Z,96.22
2018-05-12T06:26:15.347Z,95.27
2018-05-12T06:27:24.205Z,95.46
2018-05-12T06:28:33.326Z,95.56
2018-05-12T06:29:42.161Z,95.27
2018-05-12T06:30:51.001Z,95.46
2018-05-12T06:31:59.834Z,96.03
2018-05-12T06:33:08.670Z,95.56
2018-05-12T06:34:17.785Z,95.56
2018-05-12T06:35:26.625Z,95.56
2018-05-12T06:36:35.559Z,95.56
2018-05-12T06:37:44.394Z,95.46
2018-05-12T06:38:53.229Z,95.65
2018-05-12T06:40:02.615Z,95.51
2018-05-12T06:41:11.452Z,95.41
2018-05-12T06:42:20.921Z,95.03
2018-05-12T06:43:29.759Z,95.75
2018-05-12T06:44:38.598Z,95.46
2018-05-12T06:45:47.435Z,95.22
2018-05-12T06:46:56.268Z,95.41
2018-05-12T06:48:05.262Z,95.22
2018-05-12T06:49:14.099Z,95.7
2018-05-12T06:50:22.934Z,95.89
2018-05-12T06:51:31.772Z,95.7
2018-05-12T06:52:40.656Z,95.89
2018-05-12T06:53:50.165Z,95.03
2018-05-12T06:54:58.996Z,95.41
2018-05-12T06:56:07.845Z,95.7
2018-05-12T06:57:16.952Z,95.6
2018-05-12T06:58:25.787Z,95.12
2018-05-12T06:59:34.773Z,95.98
2018-05-12T07:00:43.610Z,95.22
2018-05-12T07:01:52.447Z,94.93
2018-05-12T07:03:01.565Z,95.89
2018-05-12T07:04:10.678Z,95.22
2018-05-12T07:05:19.671Z,95.6
2018-05-12T07:06:28.512Z,95.7
2018-05-12T07:07:37.343Z,95.56
2018-05-12T07:08:46.178Z,95.84
2018-05-12T07:09:55.017Z,95.17
2018-05-12T07:11:04.205Z,95.46
2018-05-12T07:12:13.087Z,95.46
2018-05-12T07:13:22.512Z,95.26
2018-05-12T07:14:31.350Z,95.07
2018-05-12T07:15:40.183Z,95.26
2018-05-12T07:16:49.172Z,95.36
2018-05-12T07:17:58.014Z,95.26
2018-05-12T07:19:06.849Z,95.46
2018-05-12T07:20:15.963Z,94.89
2018-05-12T07:21:24.814Z,94.59
2018-05-12T07:22:33.930Z,95.17
2018-05-12T07:23:42.767Z,94.98
2018-05-12T07:24:52.161Z,94.89
2018-05-12T07:26:01.271Z,94.79
2018-05-12T07:27:10.378Z,95.56
2018-05-12T07:28:19.843Z,94.89
2018-05-12T07:29:28.954Z,94.89
2018-05-12T07:30:38.064Z,94.98
2018-05-12T07:31:47.457Z,94.93
2018-05-12T07:32:56.294Z,95.41
2018-05-12T07:34:05.560Z,95.51
2018-05-12T07:35:14.400Z,94.74
2018-05-12T07:36:23.790Z,94.17
2018-05-12T07:37:32.903Z,94.26
2018-05-12T07:38:41.743Z,94.17
2018-05-12T07:39:50.629Z,94.26
2018-05-12T07:41:00.024Z,93.82
2018-05-12T07:42:09.409Z,93.97
2018-05-12T07:43:18.247Z,94.49
2018-05-12T07:44:27.083Z,94.31
2018-05-12T07:45:36.109Z,95.07
2018-05-12T07:46:45.278Z,94.31
2018-05-12T07:47:54.667Z,93.82
2018-05-12T07:49:03.504Z,94.31
2018-05-12T07:50:12.341Z,93.92
2018-05-12T07:51:21.177Z,94.02
2018-05-12T07:52:30.015Z,93.06
2018-05-12T07:53:38.852Z,93.92
2018-05-12T07:54:47.968Z,93.87
2018-05-12T07:55:56.807Z,93.01
2018-05-12T07:57:05.645Z,93.39
2018-05-12T07:58:14.481Z,93.3
2018-05-12T07:59:23.319Z,93.3
2018-05-12T08:00:32.157Z,92.91
2018-05-12T08:01:40.995Z,92.53
2018-05-12T08:02:50.254Z,93.1
2018-05-12T08:03:59.098Z,92.91
2018-05-12T08:05:08.210Z,93.68
2018-05-12T08:06:17.323Z,93.39
2018-05-12T08:07:26.168Z,93.2
2018-05-12T08:08:35.002Z,92.82
2018-05-12T08:09:43.845Z,92.48
2018-05-12T08:10:52.682Z,92.29
2018-05-12T08:12:01.520Z,92.38
2018-05-12T08:13:10.357Z,92.48
2018-05-12T08:14:19.345Z,92.96
2018-05-12T08:15:28.455Z,92.77
2018-05-12T08:16:37.293Z,93.15
2018-05-12T08:17:46.403Z,93.25
2018-05-12T08:18:55.523Z,93.34
2018-05-12T08:20:04.363Z,92.38
2018-05-12T08:21:13.202Z,92.05
2018-05-12T08:22:22.043Z,92.19
2018-05-12T08:23:30.882Z,92.14
2018-05-12T08:24:39.997Z,92.52
2018-05-12T08:25:49.264Z,93.58
2018-05-12T08:26:58.128Z,92.62
2018-05-12T08:28:06.938Z,91.95
2018-05-12T08:29:15.777Z,92.62
2018-05-12T08:30:24.617Z,92.05
2018-05-12T08:31:33.812Z,91.95
2018-05-12T08:32:42.648Z,91.52
2018-05-12T08:33:51.487Z,92.38
2018-05-12T08:35:00.599Z,92.33
2018-05-12T08:36:09.439Z,92.38
2018-05-12T08:37:18.382Z,91.22
2018-05-12T08:38:27.221Z,89.98
2018-05-12T08:39:36.066Z,89.69
2018-05-12T08:40:45.195Z,89.88
2018-05-12T08:41:54.035Z,90.84
2018-05-12T08:43:03.784Z,90.65
2018-05-12T08:44:12.896Z,90.65
2018-05-12T08:45:21.734Z,89.98
2018-05-12T08:46:30.571Z,89.98
2018-05-12T08:47:39.683Z,89.78
2018-05-12T08:48:48.621Z,88.92
2018-05-12T08:49:57.462Z,89.21
2018-05-12T08:51:06.850Z,89.4
2018-05-12T08:52:15.688Z,89.83
2018-05-12T08:53:24.527Z,89.3
2018-05-12T08:54:33.373Z,88.44
2018-05-12T08:55:42.212Z,88.96
2018-05-12T08:56:51.050Z,88.48
2018-05-12T08:58:00.439Z,88.87
2018-05-12T08:59:09.278Z,89.35
2018-05-12T09:00:18.213Z,88.87
2018-05-12T09:01:27.052Z,89.73
2018-05-12T09:02:35.891Z,89.06
2018-05-12T09:03:44.728Z,89.35
2018-05-12T09:04:53.567Z,88.39
2018-05-12T09:06:02.421Z,89.15
2018-05-12T09:07:11.538Z,89.01
2018-05-12T09:08:21.052Z,88.53
2018-05-12T09:09:29.941Z,89.29
2018-05-12T09:10:38.777Z,88.43
2018-05-12T09:11:48.067Z,88.81
2018-05-12T09:12:56.916Z,89.2
2018-05-12T09:14:05.744Z,87.95
2018-05-12T09:15:14.861Z,87.66
2018-05-12T09:16:23.699Z,87.18
2018-05-12T09:17:32.590Z,86.22
2018-05-12T09:18:41.704Z,86.51
2018-05-12T09:19:50.546Z,86.02
2018-05-12T09:20:59.384Z,86.99
2018-05-12T09:22:08.497Z,86.69
2018-05-12T09:23:17.665Z,85.64
2018-05-12T09:24:27.064Z,85.35
2018-05-12T09:25:35.999Z,84.87
2018-05-12T09:26:45.126Z,84.58
2018-05-12T09:27:54.242Z,85.35
2018-05-12T09:29:03.507Z,86.22
2018-05-12T09:30:12.352Z,85.44
2018-05-12T09:31:21.185Z,84.14
2018-05-12T09:32:30.033Z,84.43
2018-05-12T09:33:38.864Z,83.95
2018-05-12T09:34:48.025Z,85.1
2018-05-12T09:35:57.150Z,84.62
2018-05-12T09:37:05.989Z,84.43
2018-05-12T09:38:14.833Z,84.43
2018-05-12T09:39:23.674Z,82.45
2018-05-12T09:40:32.666Z,81.48
2018-05-12T09:41:41.511Z,82.21
2018-05-12T09:42:50.628Z,82.5
2018-05-12T09:44:00.023Z,81.39
2018-05-12T09:45:08.862Z,80.81
2018-05-12T09:46:17.752Z,82.06
2018-05-12T09:47:26.589Z,81.77
2018-05-12T09:48:35.428Z,82.45
2018-05-12T09:49:44.269Z,81.58
2018-05-12T09:50:53.109Z,80.81
2018-05-12T09:52:02.299Z,81.68
2018-05-12T09:53:11.139Z,81.58
2018-05-12T09:54:19.978Z,81.39
2018-05-12T09:55:28.816Z,80.04
2018-05-12T09:56:37.933Z,79.75
2018-05-12T09:57:47.049Z,79.36
2018-05-12T09:58:55.886Z,79.46
2018-05-12T10:00:05.278Z,78.92
2018-05-12T10:01:14.391Z,77.86
2018-05-12T10:02:23.232Z,77.28
2018-05-12T10:03:32.111Z,76.42
2018-05-12T10:04:41.314Z,77.19
2018-05-12T10:05:50.156Z,77.96
2018-05-12T10:06:58.996Z,78.44
2018-05-12T10:08:08.115Z,78.63
2018-05-12T10:09:17.328Z,79.41
2018-05-12T10:10:26.448Z,77.76
2018-05-12T10:11:35.292Z,76.8
2018-05-12T10:12:44.189Z,77.19
2018-05-12T10:13:52.968Z,76.61
2018-05-12T10:15:01.959Z,76.36
2018-05-12T10:16:10.799Z,75.2
2018-05-12T10:17:19.638Z,75.49
2018-05-12T10:18:28.760Z,75.2
2018-05-12T10:19:37.600Z,73.66
2018-05-12T10:20:46.772Z,74.91
2018-05-12T10:21:55.885Z,73.95
2018-05-12T10:23:04.732Z,73.57
2018-05-12T10:24:13.878Z,74.43
2018-05-12T10:25:22.716Z,73.37
2018-05-12T10:26:31.709Z,74.33
2018-05-12T10:27:40.549Z,74.72
2018-05-12T10:28:49.392Z,73.57
2018-05-12T10:29:58.228Z,74.14
2018-05-12T10:31:07.070Z,73.66
2018-05-12T10:32:15.909Z,72.41
2018-05-12T10:33:24.753Z,72.41
2018-05-12T10:34:33.592Z,73.57
2018-05-12T10:35:42.436Z,72.31
2018-05-12T10:36:51.272Z,72.02
2018-05-12T10:38:00.210Z,72.6
2018-05-12T10:39:09.049Z,73.08
2018-05-12T10:40:17.890Z,73.47
2018-05-12T10:41:26.733Z,72.79
2018-05-12T10:42:35.574Z,72.44
2018-05-12T10:43:44.515Z,72.73
2018-05-12T10:44:53.398Z,72.83
2018-05-12T10:46:02.755Z,72.34
2018-05-12T10:47:11.592Z,73.02
2018-05-12T10:48:20.434Z,71
2018-05-12T10:49:29.374Z,71.19
2018-05-12T10:50:38.214Z,71.09
2018-05-12T10:51:47.055Z,71.19
2018-05-12T10:52:56.170Z,71.7
2018-05-12T10:54:05.016Z,72.58
2018-05-12T10:55:14.286Z,72.67
2018-05-12T10:56:23.128Z,73.15
2018-05-12T10:57:31.977Z,73.44
2018-05-12T10:58:41.178Z,73.54
2018-05-12T10:59:50.021Z,73.44
2018-05-12T11:00:59.068Z,72.58
2018-05-12T11:02:08.188Z,71.7
2018-05-12T11:03:17.305Z,72
2018-05-12T11:04:26.148Z,72.09
2018-05-12T11:05:35.267Z,72.67
2018-05-12T11:06:44.833Z,73.44
2018-05-12T11:07:53.676Z,73.35
2018-05-12T11:09:02.524Z,74.31
2018-05-12T11:10:11.642Z,73.06
2018-05-12T11:11:20.483Z,72.28
2018-05-12T11:12:29.474Z,73.15
2018-05-12T11:13:38.321Z,72.38
2018-05-12T11:14:47.166Z,72.77
2018-05-12T11:15:56.032Z,73.54
2018-05-12T11:17:05.319Z,73.44
2018-05-12T11:18:14.162Z,73.35
2018-05-12T11:19:23.005Z,73.93
2018-05-12T11:20:32.121Z,75.95
2018-05-12T11:21:41.102Z,74.99
2018-05-12T11:22:50.192Z,75.85
2018-05-12T11:23:59.138Z,76.05
2018-05-12T11:25:07.978Z,76.72
2018-05-12T11:26:16.819Z,76.92
2018-05-12T11:27:25.945Z,76.67
2018-05-12T11:28:34.791Z,75.51
2018-05-12T11:29:44.054Z,75.51
2018-05-12T11:30:52.896Z,75.51
2018-05-12T11:32:01.736Z,76.67
2018-05-12T11:33:10.578Z,76.67
2018-05-12T11:34:19.419Z,76.37
2018-05-12T11:35:28.611Z,76.86
2018-05-12T11:36:37.463Z,75.99
2018-05-12T11:37:46.302Z,76.32
2018-05-12T11:38:55.142Z,76.28
2018-05-12T11:40:04.263Z,76.09
2018-05-12T11:41:13.111Z,75.7
2018-05-12T11:42:21.950Z,76.82
2018-05-12T11:43:31.043Z,75.27
2018-05-12T11:44:39.920Z,75.99
2018-05-12T11:45:48.731Z,75.12
2018-05-12T11:46:57.674Z,75.51
2018-05-12T11:48:06.517Z,75.51
2018-05-12T11:49:15.360Z,74.16
2018-05-12T11:50:24.204Z,74.35
2018-05-12T11:51:33.049Z,73.48
2018-05-12T11:52:42.144Z,73.86
2018-05-12T11:53:50.985Z,74.44
2018-05-12T11:54:59.827Z,74.51
2018-05-12T11:56:09.238Z,75.22
2018-05-12T11:57:18.373Z,75.37
2018-05-12T11:58:27.408Z,74.79
2018-05-12T11:59:36.433Z,76.57
2018-05-12T12:00:45.828Z,74.93
2018-05-12T12:01:54.680Z,73.38
2018-05-12T12:03:03.803Z,74.29
2018-05-12T12:04:12.897Z,72.94
2018-05-12T12:05:21.742Z,72.84
2018-05-12T12:06:30.586Z,71.39
2018-05-12T12:07:39.436Z,70.32
2018-05-12T12:08:48.276Z,71
2018-05-12T12:09:57.548Z,67.72
2018-05-12T12:11:06.396Z,68.78
2018-05-12T12:12:15.241Z,67.04
2018-05-12T12:13:24.088Z,68.01
2018-05-12T12:14:33.213Z,66.36
2018-05-12T12:15:42.530Z,66.17
2018-05-12T12:16:51.375Z,64.56
2018-05-12T12:18:00.223Z,61.21
2018-05-12T12:19:09.072Z,61.3
2018-05-12T12:20:18.195Z,60.08
2018-05-12T12:21:27.471Z,60.75
2018-05-12T12:22:36.323Z,59.69
2018-05-12T12:23:45.173Z,59.59
2018-05-12T12:24:54.020Z,60.82
2018-05-12T12:26:03.140Z,59.79
2018-05-12T12:27:12.439Z,57.86
2018-05-12T12:28:21.287Z,57.86
2018-05-12T12:29:30.137Z,58.85
2018-05-12T12:30:38.988Z,57.4
2018-05-12T12:31:48.387Z,57.88
2018-05-12T12:32:57.382Z,58.47
2018-05-12T12:34:06.234Z,57.91
2018-05-12T12:35:15.083Z,57.71
2018-05-12T12:36:23.932Z,58.49
2018-05-12T12:37:33.062Z,58.3
2018-05-12T12:38:42.011Z,59.07
2018-05-12T12:39:50.862Z,58.49
2018-05-12T12:40:59.987Z,58.59
2018-05-12T12:42:09.113Z,58.27
2018-05-12T12:43:17.959Z,59.82
2018-05-12T12:44:26.808Z,59.91
2018-05-12T12:45:35.655Z,59.63
2018-05-12T12:46:44.505Z,59.72
2018-05-12T12:47:53.627Z,59.05
2018-05-12T12:49:02.473Z,58.37
2018-05-12T12:50:11.751Z,59.33
2018-05-12T12:51:20.595Z,59.72
2018-05-12T12:52:30.268Z,60.69
2018-05-12T12:53:39.392Z,60.21
2018-05-12T12:54:48.516Z,58.65
2018-05-12T12:55:57.413Z,57.81
2018-05-12T12:57:06.267Z,57.23
2018-05-12T12:58:15.183Z,55.98
2018-05-12T12:59:23.970Z,56.07
2018-05-12T13:00:33.091Z,56.82
2018-05-12T13:01:42.214Z,57.98
2018-05-12T13:02:51.059Z,56.52
2018-05-12T13:03:59.908Z,56.79
2018-05-12T13:05:08.755Z,58.34
2018-05-12T13:06:17.601Z,59.31
2018-05-12T13:07:26.607Z,57.01
2018-05-12T13:08:35.445Z,57.14
2018-05-12T13:09:44.292Z,55.88
2018-05-12T13:10:53.139Z,54.62
2018-05-12T13:12:01.989Z,53.87
2018-05-12T13:13:10.842Z,53.75
2018-05-12T13:14:19.693Z,53.17
2018-05-12T13:15:28.827Z,53.07
2018-05-12T13:16:37.954Z,53.07
2018-05-12T13:17:46.804Z,53.39
2018-05-12T13:18:55.655Z,53.49
2018-05-12T13:20:04.794Z,53.22
2018-05-12T13:21:13.646Z,53.19
2018-05-12T13:22:22.497Z,53.31
2018-05-12T13:23:31.446Z,52.25
2018-05-12T13:24:40.308Z,52.51
2018-05-12T13:25:49.440Z,52.34
2018-05-12T13:26:58.319Z,50.99
2018-05-12T13:28:07.145Z,50.99
2018-05-12T13:29:16.274Z,51.57
2018-05-12T13:30:25.575Z,50.79
2018-05-12T13:31:34.426Z,52.28
2018-05-12T13:32:43.281Z,52.66
2018-05-12T13:33:52.128Z,52.76
2018-05-12T13:35:00.982Z,50.82
2018-05-12T13:36:09.985Z,51.91
2018-05-12T13:37:18.838Z,51.53
2018-05-12T13:38:27.693Z,50.46
2018-05-12T13:39:36.544Z,50.56
2018-05-12T13:40:45.674Z,51.04
2018-05-12T13:41:54.577Z,51.75
2018-05-12T13:43:03.435Z,50.58
2018-05-12T13:44:12.562Z,50.68
2018-05-12T13:45:21.414Z,50.02
2018-05-12T13:46:30.269Z,49.34
2018-05-12T13:47:39.122Z,49.32
2018-05-12T13:48:47.975Z,49.24
2018-05-12T13:49:56.828Z,50.31
2018-05-12T13:51:05.678Z,50.04
2018-05-12T13:52:14.528Z,49.44
2018-05-12T13:53:23.661Z,49.71
2018-05-12T13:54:32.515Z,51.55
2018-05-12T13:55:42.003Z,50.89
2018-05-12T13:56:50.819Z,48.75
2018-05-12T13:58:00.342Z,49.95
2018-05-12T13:59:09.804Z,48.22
2018-05-12T14:00:18.929Z,48.49
2018-05-12T14:01:27.784Z,49.07
2018-05-12T14:02:36.630Z,48.88
2018-05-12T14:03:45.480Z,48.95
2018-05-12T14:04:54.381Z,49.05
2018-05-12T14:06:03.231Z,51.18
2018-05-12T14:07:12.082Z,51.16
2018-05-12T14:08:21.210Z,50.21
2018-05-12T14:09:30.060Z,49.66
2018-05-12T14:10:39.065Z,51.28
2018-05-12T14:11:47.916Z,50.12
2018-05-12T14:12:57.046Z,50.68
2018-05-12T14:14:05.893Z,51.26
2018-05-12T14:15:14.746Z,51.55
2018-05-12T14:16:23.645Z,50.87
2018-05-12T14:17:32.497Z,51.75
2018-05-12T14:18:41.349Z,52.88
2018-05-12T14:19:50.471Z,52.5
2018-05-12T14:20:59.600Z,52.86
2018-05-12T14:22:08.447Z,52.76
2018-05-12T14:23:17.301Z,53.58
2018-05-12T14:24:26.144Z,54.06
2018-05-12T14:25:34.991Z,54.26
2018-05-12T14:26:43.838Z,55.88
2018-05-12T14:27:52.783Z,55.22
2018-05-12T14:29:01.632Z,55.98
2018-05-12T14:30:10.481Z,55.4
2018-05-12T14:31:19.329Z,55.1
2018-05-12T14:32:28.453Z,55.78
2018-05-12T14:33:37.625Z,57.43
2018-05-12T14:34:46.469Z,56.75
2018-05-12T14:35:55.311Z,57.14
2018-05-12T14:37:04.164Z,56.56
2018-05-12T14:38:13.284Z,56.56
2018-05-12T14:39:22.387Z,57.04
2018-05-12T14:40:31.462Z,57.14
2018-05-12T14:41:40.585Z,57.5
2018-05-12T14:42:49.553Z,57.88
2018-05-12T14:43:58.272Z,57.98
2018-05-12T14:45:07.267Z,58.56
2018-05-12T14:46:16.112Z,57.59
2018-05-12T14:47:24.958Z,57.98
2018-05-12T14:48:33.802Z,57.98
2018-05-12T14:49:42.923Z,58.37
2018-05-12T14:50:52.318Z,58.17